首页
METAR-TAF:

METAR-TAF

机场 :

聖路易斯波托西州, 墨西哥

纬度: 22-09N, 经度: 100-59W, 海拔: 1870米

当前天气观测

该预报发布于1小时和29分钟前的20:40 UTC
风速4节,风向
温度 34°C
湿度 11%
气压 1019 hPa
能見度: 16.1公里
散云层高于2500英尺, 塔状积云.
散云层高于23000英尺

METAR: MMSP 172040Z 10004KT 10SM SCT025TCU SCT230 34/M01 A3010 RMK SLP021 57021 905 8/205

时间: 17:09 (22:09 UTC)

预报

该预报发布于5小时和17分钟前的16:52 UTC
预报有效从17日的 18点(UTC)到 18日的 18点(UTC)
风速8节,风向东转东北
能見度: 10公里
散云层高于2500英尺
多云层高于8000英尺
成为
从 17日的 21点(UTC)到 17日的 22点(UTC)
能見度: 10公里
散云层高于2500英尺, 积雨云.
多云层高于8000英尺
多云层高于23000英尺
附近有, 雨
短暂存在
从 17日的 22点(UTC)到 18日的 02点(UTC)
能見度: 9.7公里
多云层高于2500英尺, 积雨云.
附近有, 雨
从 18日的 0400点(UTC)
风速5节,风向东转东南
能見度: 10公里
散云层高于10000英尺
散云层高于23000英尺
从 18日的 0900点(UTC)
风速节,风向
能見度: 9.7公里
散云层高于10000英尺
短暂存在
从 18日的 10点(UTC)到 18日的 14点(UTC)
能見度: 4.8公里
散云层高于1000英尺
轻雾, 霾
从 18日的 1500点(UTC)
风速4节,风向
能見度: 8.0公里
散云层高于10000英尺
从 18日的 1700点(UTC)
风速8节,风向东北
能見度: 10公里
散云层高于2500英尺
散云层高于10000英尺

TAF: MMSP 171652Z 1718/1818 07008KT P6SM SCT025 BKN080 TX33/1720Z TN15/1812Z BECMG 1721/1722 P6SM VC RA SCT025CB BKN080 BKN230 TEMPO 1722/1802 6SM VC RA BKN025CB FM180400 12005KT P6SM SCT100 SCT230 FM180900 00000KT 6SM HZ SCT100 TEMPO 1810/1814 3SM BR HZ SCT010 FM181500 10004KT 5SM HZ SCT100 FM181700 04008KT P6SM SCT025 SCT100

超过4000个机场的气象观测和天气预报(METAR&TAF报告)。

可查询的气象台以黄色和红色小点在地图上表示。

将鼠标移到小点上方,可查看气象台名称。

然后点击查看天气观测和预报。

如需切换地图:点击带黑十字的绿色按钮放大地图;点击带横线的绿色按钮缩小地图;或者点击绿色箭头查看邻近地区的地图。


METAR-TAF: